首页
METAR-TAF:

METAR-TAF

机场 :

匹兹堡国际机场

匹兹堡, 宾夕法尼亚州, 美国

纬度: 40-30-14N, 经度: 080-15-59W, 海拔: 366米

当前天气观测

该预报发布于37分钟前的20:51 UTC
风速10节,风向西南
温度 13°C
湿度 38%
气压 1018 hPa
能見度: 16.1公里
少量云层高于7000英尺
少量云层高于18000英尺
散云层高于25000英尺

METAR: KPIT 222051Z 23010KT 10SM FEW070 FEW180 SCT250 13/M01 A3006 RMK AO2 SLP194 T01281011 56014

时间: 17:28 (21:28 UTC)

预报

该预报发布于42分钟前的20:46 UTC
预报有效从22日的 21点(UTC)到 23日的 24点(UTC)
风速10节,风向西转西南,有时为16节阵风
能見度: 10公里
散云层高于8000英尺
从 22日的 2200点(UTC)
风速7节,风向西南
能見度: 10公里
多云层高于6000英尺
从 23日的 1500点(UTC)
风速13节,风向西,有时为22节阵风
能見度: 10公里
多云层高于3500英尺
从 23日的 1900点(UTC)
风速16节,风向西转西北,有时为26节阵风
能見度: 10公里
多云层高于4000英尺

TAF: KPIT 222046Z 2221/2324 24010G16KT P6SM SCT080 FM222200 23007KT P6SM BKN060 FM231500 27013G22KT P6SM BKN035 FM231900 30016G26KT P6SM BKN040

超过4000个机场的气象观测和天气预报(METAR&TAF报告)。

可查询的气象台以黄色和红色小点在地图上表示。

将鼠标移到小点上方,可查看气象台名称。

然后点击查看天气观测和预报。

如需切换地图:点击带黑十字的绿色按钮放大地图;点击带横线的绿色按钮缩小地图;或者点击绿色箭头查看邻近地区的地图。


METAR-TAF: